Time;durP1;ratioP1;P1;durP2;ratioP2;P2;SDS_P1;SDS_P2;PMS_P1;PMS_P2;Temp;Humidity;BMP_temperature;BMP_pressure;BME280_temperature;BME280_humidity;BME280_pressure;Samples;Min_cycle;Max_cycle;Signal;HPM_P1;HPM_P2
2022/01/12 00:02:18;;;;;;;;;;;2.60;99.90;;;;;;5083915;28;20007;-74
2022/01/12 00:04:46;;;;;;;;;;;2.60;99.90;;;;;;5080184;28;19952;-74
2022/01/12 00:07:13;;;;;;;;;;;2.60;99.90;;;;;;5072867;28;20447;-74
2022/01/12 00:09:39;;;;;;;;;;;2.50;99.90;;;;;;5078781;28;20342;-74
2022/01/12 00:12:07;;;;;;;;;;;2.50;99.90;;;;;;5078854;28;19920;-74
2022/01/12 00:14:34;;;;;;;;;;;2.50;99.90;;;;;;5080310;28;19928;-74
2022/01/12 00:17:00;;;;;;;;;;;2.50;99.90;;;;;;5072190;28;19967;-74
2022/01/12 00:19:29;;;;;;;;;;;2.50;99.90;;;;;;5078472;28;20462;-74
2022/01/12 00:21:56;;;;;;;;;;;2.50;99.90;;;;;;5090359;28;20334;-74
2022/01/12 00:24:39;;;;;;;;;;;2.50;99.90;;;;;;5057031;28;20375;-74
2022/01/12 00:35:25;;;;;;;;;;;2.60;99.90;;;;;;5082672;28;19920;-75
2022/01/12 00:37:51;;;;;;;;;;;2.60;99.90;;;;;;5083283;28;19921;-75
2022/01/12 00:40:18;;;;;;;;;;;2.50;99.90;;;;;;5078345;28;20295;-74
2022/01/12 00:42:45;;;;;;;;;;;2.50;99.90;;;;;;5082609;28;19920;-74
2022/01/12 00:45:11;;;;;;;;;;;2.50;99.90;;;;;;5082484;28;19924;-74
2022/01/12 00:47:38;;;;;;;;;;;2.50;99.90;;;;;;5081398;28;19924;-74
2022/01/12 00:50:05;;;;;;;;;;;2.40;99.90;;;;;;5080688;28;19920;-74
2022/01/12 00:52:32;;;;;;;;;;;2.40;99.90;;;;;;5074897;28;19925;-74
2022/01/12 00:54:58;;;;;;;;;;;2.40;99.90;;;;;;5088812;28;20474;-74
2022/01/12 00:57:25;;;;;;;;;;;2.40;99.90;;;;;;5073677;28;19925;-74
2022/01/12 00:59:52;;;;;;;;;;;2.30;99.90;;;;;;5075549;28;19978;-74
2022/01/12 01:02:18;;;;;;;;;;;2.30;99.90;;;;;;5078082;28;20440;-74
2022/01/12 01:04:45;;;;;;;;;;;2.20;99.90;;;;;;5081292;28;19973;-74
2022/01/12 01:07:12;;;;;;;;;;;2.20;99.90;;;;;;5084655;28;19931;-74
2022/01/12 01:09:44;;;;;;;;;;;2.20;99.90;;;;;;5078544;28;20393;-74
2022/01/12 01:12:12;;;;;;;;;;;2.10;99.90;;;;;;5080966;28;19936;-74
2022/01/12 01:15:02;;;;;;;;;;;2.10;99.90;;;;;;5079324;28;20000;-74
2022/01/12 01:25:46;;;;;;;;;;;1.90;99.90;;;;;;5098812;28;20091;-75
2022/01/12 01:28:14;;;;;;;;;;;1.80;99.90;;;;;;5082842;28;19970;-73
2022/01/12 01:30:41;;;;;;;;;;;1.70;99.90;;;;;;5069258;28;19998;-73
2022/01/12 01:33:10;;;;;;;;;;;1.70;99.90;;;;;;5079021;28;20592;-74
2022/01/12 01:35:38;;;;;;;;;;;1.60;99.90;;;;;;5077699;28;19978;-74
2022/01/12 01:38:05;;;;;;;;;;;1.50;99.90;;;;;;5081626;28;19920;-73
2022/01/12 01:40:33;;;;;;;;;;;1.40;99.90;;;;;;5084928;28;20002;-74
2022/01/12 01:53:45;;;;;;;;;;;0.90;99.90;;;;;;5082148;28;19920;-74
2022/01/12 01:56:12;;;;;;;;;;;0.80;99.90;;;;;;5084179;28;20412;-74
2022/01/12 01:58:39;;;;;;;;;;;0.70;99.90;;;;;;5077806;28;19942;-74
2022/01/12 02:01:07;;;;;;;;;;;0.60;99.90;;;;;;5087499;28;19974;-74
2022/01/12 02:03:33;;;;;;;;;;;0.40;99.90;;;;;;5086026;28;20396;-74
2022/01/12 02:06:00;;;;;;;;;;;0.30;99.90;;;;;;5084852;28;19924;-74
2022/01/12 02:08:27;;;;;;;;;;;0.20;99.90;;;;;;5074336;28;19930;-74
2022/01/12 02:10:55;;;;;;;;;;;0.10;99.90;;;;;;5078814;28;19955;-74
2022/01/12 02:13:22;;;;;;;;;;;-0.10;99.90;;;;;;5075856;28;20405;-75
2022/01/12 02:15:49;;;;;;;;;;;-0.20;99.90;;;;;;5077222;28;20514;-74
2022/01/12 02:18:22;;;;;;;;;;;-0.50;99.90;;;;;;5078745;28;20433;-74
2022/01/12 02:40:28;;;;;;;;;;;-1.00;99.90;;;;;;5081724;28;19920;-74
2022/01/12 02:51:27;;;;;;;;;;;-0.90;99.90;;;;;;5084860;28;19920;-75
2022/01/12 02:53:53;;;;;;;;;;;-0.90;99.90;;;;;;5080044;28;20551;-75
2022/01/12 02:56:21;;;;;;;;;;;-1.10;99.90;;;;;;5086633;28;20587;-74
2022/01/12 02:58:49;;;;;;;;;;;-1.30;99.90;;;;;;5081564;28;20011;-75
2022/01/12 03:03:57;;;;;;;;;;;-1.50;99.90;;;;;;5083436;28;19920;-74
2022/01/12 03:06:28;;;;;;;;;;;-1.70;99.90;;;;;;5079186;28;20032;-74
2022/01/12 03:08:55;;;;;;;;;;;-1.80;99.90;;;;;;5080095;28;19999;-74
2022/01/12 03:11:23;;;;;;;;;;;-1.70;99.90;;;;;;5092666;28;20374;-75
2022/01/12 03:13:50;;;;;;;;;;;-1.70;99.90;;;;;;5085835;28;20095;-74
2022/01/12 03:16:19;;;;;;;;;;;-1.60;99.90;;;;;;5086274;28;20019;-74
2022/01/12 03:18:47;;;;;;;;;;;-1.50;99.90;;;;;;5079714;28;20003;-74
2022/01/12 03:21:15;;;;;;;;;;;-1.50;99.90;;;;;;5079805;28;19920;-75
2022/01/12 03:23:42;;;;;;;;;;;-1.30;99.90;;;;;;5076820;28;19955;-75
2022/01/12 03:26:09;;;;;;;;;;;-1.30;99.90;;;;;;5087615;28;19927;-74
2022/01/12 03:28:40;;;;;;;;;;;-1.40;99.90;;;;;;5078602;28;20620;-74
2022/01/12 03:31:17;;;;;;;;;;;-1.40;99.90;;;;;;5075960;28;20011;-74
2022/01/12 03:34:07;;;;;;;;;;;-1.50;99.90;;;;;;5073365;28;20306;-74
2022/01/12 03:36:54;;;;;;;;;;;-1.70;99.90;;;;;;5077916;28;20014;-73
2022/01/12 03:39:21;;;;;;;;;;;-1.80;99.90;;;;;;5073540;28;20103;-74
2022/01/12 03:41:48;;;;;;;;;;;-1.90;99.90;;;;;;5078756;28;19960;-73
2022/01/12 03:44:15;;;;;;;;;;;-2.00;99.90;;;;;;5083225;28;19955;-73
2022/01/12 03:46:46;;;;;;;;;;;-1.80;99.90;;;;;;5082591;28;20003;-73
2022/01/12 03:49:14;;;;;;;;;;;-1.70;99.90;;;;;;5078882;28;20445;-73
2022/01/12 03:51:41;;;;;;;;;;;-1.60;99.90;;;;;;5071679;28;20015;-74
2022/01/12 03:54:09;;;;;;;;;;;-1.50;99.90;;;;;;5072059;28;19927;-73
2022/01/12 03:56:36;;;;;;;;;;;-1.60;99.90;;;;;;5079806;28;19920;-73
2022/01/12 03:59:03;;;;;;;;;;;-1.60;99.90;;;;;;5071828;28;19959;-73
2022/01/12 04:01:30;;;;;;;;;;;-1.70;99.90;;;;;;5080969;28;20385;-73
2022/01/12 04:09:32;;;;;;;;;;;-2.00;99.90;;;;;;5072908;28;19933;-73
2022/01/12 04:11:58;;;;;;;;;;;-2.10;99.90;;;;;;5077612;28;19927;-73
2022/01/12 04:14:25;;;;;;;;;;;-2.20;99.90;;;;;;5078143;28;19947;-73
2022/01/12 04:16:52;;;;;;;;;;;-2.20;99.90;;;;;;5083533;28;20543;-73
2022/01/12 04:19:19;;;;;;;;;;;-2.20;99.90;;;;;;5080577;28;19955;-73
2022/01/12 04:21:48;;;;;;;;;;;-2.20;99.90;;;;;;5088034;28;19920;-73
2022/01/12 04:24:15;;;;;;;;;;;-2.10;99.90;;;;;;5073223;28;19927;-73
2022/01/12 04:26:42;;;;;;;;;;;-2.10;99.90;;;;;;5071772;28;19968;-73
2022/01/12 04:29:09;;;;;;;;;;;-2.10;99.90;;;;;;5077257;28;20010;-73
2022/01/12 04:31:37;;;;;;;;;;;-2.00;99.90;;;;;;5075236;28;19956;-73
2022/01/12 04:34:04;;;;;;;;;;;-1.90;99.90;;;;;;5077686;28;20036;-73
2022/01/12 04:36:32;;;;;;;;;;;-1.80;99.90;;;;;;5075978;28;19928;-72
2022/01/12 04:38:59;;;;;;;;;;;-1.80;99.90;;;;;;5076178;28;20031;-73
2022/01/12 04:41:26;;;;;;;;;;;-1.90;99.90;;;;;;5079368;28;20019;-72
2022/01/12 04:43:52;;;;;;;;;;;-2.00;99.90;;;;;;5075608;28;20108;-73
2022/01/12 04:46:28;;;;;;;;;;;-2.10;99.90;;;;;;5077518;28;20010;-73
2022/01/12 04:49:08;;;;;;;;;;;-2.20;99.90;;;;;;5090105;28;19920;-73
2022/01/12 04:51:35;;;;;;;;;;;-2.30;99.90;;;;;;5072026;28;20003;-73
2022/01/12 04:54:03;;;;;;;;;;;-2.40;99.90;;;;;;5082159;28;19991;-72
2022/01/12 04:56:30;;;;;;;;;;;-2.40;99.90;;;;;;5079147;28;19920;-73
2022/01/12 04:58:57;;;;;;;;;;;-2.40;99.90;;;;;;5072829;28;20014;-73
2022/01/12 05:01:26;;;;;;;;;;;-2.40;99.90;;;;;;5079821;28;19926;-73
2022/01/12 05:14:23;;;;;;;;;;;-2.40;99.90;;;;;;5078703;28;19942;-72
2022/01/12 05:16:49;;;;;;;;;;;-2.30;99.90;;;;;;5074291;28;20227;-72
2022/01/12 05:19:17;;;;;;;;;;;-2.30;99.90;;;;;;5095160;28;20062;-72
2022/01/12 05:21:43;;;;;;;;;;;-2.30;99.90;;;;;;5087383;28;19920;-73
2022/01/12 05:24:10;;;;;;;;;;;-2.30;99.90;;;;;;5087173;28;19927;-72
2022/01/12 05:26:37;;;;;;;;;;;-2.30;99.90;;;;;;5073379;28;20018;-73
2022/01/12 05:29:04;;;;;;;;;;;-2.30;99.90;;;;;;5083219;28;19928;-72
2022/01/12 05:31:33;;;;;;;;;;;-2.30;99.90;;;;;;5077875;28;20402;-72
2022/01/12 05:34:01;;;;;;;;;;;-2.30;99.90;;;;;;5088252;28;19969;-72
2022/01/12 05:36:30;;;;;;;;;;;-2.30;99.90;;;;;;5082538;28;19951;-72
2022/01/12 05:38:57;;;;;;;;;;;-2.30;99.90;;;;;;5085663;28;20015;-72
2022/01/12 05:41:24;;;;;;;;;;;-2.20;99.90;;;;;;5081940;28;19921;-72
2022/01/12 05:43:50;;;;;;;;;;;-2.10;99.90;;;;;;5084221;28;20006;-72
2022/01/12 05:46:22;;;;;;;;;;;-2.00;99.90;;;;;;5084742;28;19920;-72
2022/01/12 05:49:50;;;;;;;;;;;-2.10;99.90;;;;;;5080112;28;20404;-72
2022/01/12 05:51:45;;;;;;;;;;;-2.00;99.90;;;;;;5087622;28;19920;-72
2022/01/12 05:54:12;;;;;;;;;;;-2.00;99.90;;;;;;5074738;28;20019;-72
2022/01/12 05:56:38;;;;;;;;;;;-2.00;99.90;;;;;;5081233;28;19924;-72
2022/01/12 05:59:05;;;;;;;;;;;-1.90;99.90;;;;;;5083140;28;19958;-72
2022/01/12 06:01:32;;;;;;;;;;;-1.90;99.90;;;;;;5091346;28;19920;-73
2022/01/12 06:03:59;;;;;;;;;;;-1.90;99.90;;;;;;5081489;28;19920;-73
2022/01/12 06:06:25;;;;;;;;;;;-1.90;99.90;;;;;;5080469;28;19951;-72
2022/01/12 06:08:52;;;;;;;;;;;-2.00;99.90;;;;;;5086644;28;19925;-72
2022/01/12 06:11:19;;;;;;;;;;;-2.00;99.90;;;;;;5077313;28;19971;-72
2022/01/12 06:13:45;;;;;;;;;;;-2.00;99.90;;;;;;5085129;28;19920;-72
2022/01/12 06:16:12;;;;;;;;;;;-2.00;99.90;;;;;;5086880;28;20414;-72
2022/01/12 06:18:39;;;;;;;;;;;-2.00;99.90;;;;;;5090666;28;20389;-72
2022/01/12 06:21:06;;;;;;;;;;;-2.10;99.90;;;;;;5088591;28;19981;-73
2022/01/12 06:23:32;;;;;;;;;;;-2.10;99.90;;;;;;5073711;28;19959;-72
2022/01/12 06:25:59;;;;;;;;;;;-2.20;99.90;;;;;;5076338;28;19955;-73
2022/01/12 06:31:11;;;;;;;;;;;-2.10;99.90;;;;;;5075115;28;20014;-73
2022/01/12 06:33:46;;;;;;;;;;;-2.10;99.90;;;;;;5080618;28;19928;-71
2022/01/12 06:36:13;;;;;;;;;;;-2.10;99.90;;;;;;5094588;27;20393;-73
2022/01/12 06:38:40;;;;;;;;;;;-2.20;99.90;;;;;;5078273;28;19920;-72
2022/01/12 06:41:07;;;;;;;;;;;-2.30;99.90;;;;;;5074456;28;19927;-72
2022/01/12 06:43:35;;;;;;;;;;;-2.40;99.90;;;;;;5080641;28;19928;-73
2022/01/12 06:46:03;;;;;;;;;;;-2.50;99.90;;;;;;5082384;28;19928;-73
2022/01/12 06:48:30;;;;;;;;;;;-2.60;99.90;;;;;;5070787;28;19920;-72
2022/01/12 06:50:57;;;;;;;;;;;-2.50;99.90;;;;;;5076405;28;20036;-73
2022/01/12 06:53:24;;;;;;;;;;;-2.50;99.90;;;;;;5082242;28;20298;-72
2022/01/12 06:55:51;;;;;;;;;;;-2.40;99.90;;;;;;5079752;28;20351;-72
2022/01/12 06:58:18;;;;;;;;;;;-2.40;99.90;;;;;;5077475;28;19920;-73
2022/01/12 07:00:45;;;;;;;;;;;-2.50;99.90;;;;;;5073939;28;20023;-72
2022/01/12 07:03:12;;;;;;;;;;;-2.60;99.90;;;;;;5074310;28;19920;-72
2022/01/12 07:05:40;;;;;;;;;;;-2.70;99.90;;;;;;5075499;28;20007;-72
2022/01/12 07:08:07;;;;;;;;;;;-2.70;99.90;;;;;;5070890;28;19966;-72
2022/01/12 07:10:33;;;;;;;;;;;-2.70;99.90;;;;;;5071423;28;19920;-73
2022/01/12 07:13:00;;;;;;;;;;;-2.70;99.90;;;;;;5073971;28;19942;-72
2022/01/12 07:15:26;;;;;;;;;;;-2.60;99.90;;;;;;5086366;28;19920;-72
2022/01/12 07:17:53;;;;;;;;;;;-2.50;99.90;;;;;;5081456;28;19932;-72
2022/01/12 07:20:20;;;;;;;;;;;-2.60;99.90;;;;;;5069565;28;19958;-71
2022/01/12 07:22:46;;;;;;;;;;;-2.60;99.90;;;;;;5074408;28;19928;-72
2022/01/12 07:25:13;;;;;;;;;;;-2.50;99.90;;;;;;5051689;28;19931;-72
2022/01/12 07:27:40;;;;;;;;;;;-2.40;99.90;;;;;;5072111;28;19920;-72
2022/01/12 07:30:07;;;;;;;;;;;-2.30;99.90;;;;;;5079148;28;20019;-72
2022/01/12 07:32:34;;;;;;;;;;;-2.30;99.90;;;;;;5079953;28;19921;-72
2022/01/12 07:35:01;;;;;;;;;;;-2.20;99.90;;;;;;5073924;28;20031;-72
2022/01/12 07:37:28;;;;;;;;;;;-2.10;99.90;;;;;;5080490;28;19920;-71
2022/01/12 07:39:54;;;;;;;;;;;-2.10;99.90;;;;;;5081090;28;19924;-72
2022/01/12 07:42:21;;;;;;;;;;;-2.00;99.90;;;;;;5077546;28;19920;-72
2022/01/12 07:44:48;;;;;;;;;;;-2.00;99.90;;;;;;5051017;28;19926;-72
2022/01/12 07:47:15;;;;;;;;;;;-2.00;99.90;;;;;;5079833;28;19920;-72
2022/01/12 07:49:41;;;;;;;;;;;-2.00;99.90;;;;;;5072714;28;19959;-72
2022/01/12 07:52:08;;;;;;;;;;;-2.00;99.90;;;;;;5071130;28;20015;-72
2022/01/12 07:54:35;;;;;;;;;;;-2.00;99.90;;;;;;5071445;28;20326;-72
2022/01/12 07:57:02;;;;;;;;;;;-2.00;99.90;;;;;;5077568;28;19921;-72
2022/01/12 07:59:29;;;;;;;;;;;-2.00;99.90;;;;;;5073667;28;19966;-72
2022/01/12 08:01:55;;;;;;;;;;;-2.00;99.90;;;;;;5056426;28;20034;-72
2022/01/12 08:04:22;;;;;;;;;;;-1.90;99.90;;;;;;5079877;28;19924;-72
2022/01/12 08:06:49;;;;;;;;;;;-1.60;99.90;;;;;;5074749;28;19927;-69
2022/01/12 08:09:16;;;;;;;;;;;-1.20;99.90;;;;;;5063090;28;19928;-69
2022/01/12 08:11:43;;;;;;;;;;;-0.60;99.90;;;;;;5064241;28;19975;-70
2022/01/12 08:14:09;;;;;;;;;;;-0.20;99.90;;;;;;5065466;28;19924;-70
2022/01/12 08:16:36;;;;;;;;;;;0.10;99.90;;;;;;5078815;28;20473;-70
2022/01/12 08:19:03;;;;;;;;;;;0.10;99.90;;;;;;5071294;28;19963;-69
2022/01/12 08:21:30;;;;;;;;;;;0.10;99.90;;;;;;5078329;28;20248;-70
2022/01/12 08:23:56;;;;;;;;;;;0.10;99.90;;;;;;5072912;28;19959;-69
2022/01/12 08:26:30;;;;;;;;;;;0.20;99.90;;;;;;5070177;28;19931;-70
2022/01/12 08:28:57;;;;;;;;;;;0.30;99.90;;;;;;5069800;28;19920;-70
2022/01/12 08:31:24;;;;;;;;;;;0.40;99.90;;;;;;5072766;28;19927;-70
2022/01/12 08:33:50;;;;;;;;;;;0.10;99.90;;;;;;5076130;28;19931;-69
2022/01/12 08:36:17;;;;;;;;;;;-0.20;99.90;;;;;;5069964;28;19924;-69
2022/01/12 08:38:44;;;;;;;;;;;-0.40;99.90;;;;;;5088584;28;19920;-69
2022/01/12 08:41:10;;;;;;;;;;;-0.60;99.90;;;;;;5083760;28;19920;-69
2022/01/12 08:43:37;;;;;;;;;;;-0.60;99.90;;;;;;5071335;28;20420;-70
2022/01/12 08:46:04;;;;;;;;;;;-0.30;99.90;;;;;;5069914;28;19924;-70
2022/01/12 08:48:31;;;;;;;;;;;-0.40;99.90;;;;;;5069812;28;19931;-69
2022/01/12 08:50:58;;;;;;;;;;;-0.60;99.90;;;;;;5074581;28;19920;-70
2022/01/12 08:53:24;;;;;;;;;;;-0.60;99.90;;;;;;5054079;28;19973;-70
2022/01/12 08:55:51;;;;;;;;;;;-0.50;99.90;;;;;;5087204;28;19963;-69
2022/01/12 08:58:20;;;;;;;;;;;0.10;99.90;;;;;;5078828;28;19926;-70
2022/01/12 09:00:46;;;;;;;;;;;0.80;99.90;;;;;;5072803;28;19938;-71
2022/01/12 09:03:13;;;;;;;;;;;1.60;99.90;;;;;;5080016;28;19970;-74
2022/01/12 09:05:40;;;;;;;;;;;2.20;99.90;;;;;;5083791;28;19986;-72
2022/01/12 09:08:06;;;;;;;;;;;2.90;99.90;;;;;;5083907;28;19926;-71
2022/01/12 09:10:33;;;;;;;;;;;3.60;99.90;;;;;;5078735;28;19924;-71
2022/01/12 09:13:00;;;;;;;;;;;4.30;99.90;;;;;;5074493;28;19924;-72
2022/01/12 09:15:29;;;;;;;;;;;4.70;99.90;;;;;;5084915;28;20479;-71
2022/01/12 09:17:56;;;;;;;;;;;4.90;99.90;;;;;;5099957;28;20312;-72
2022/01/12 09:20:23;;;;;;;;;;;5.30;99.90;;;;;;5080083;28;19924;-72
2022/01/12 09:22:50;;;;;;;;;;;5.70;99.90;;;;;;5073501;28;19994;-71
2022/01/12 09:25:17;;;;;;;;;;;5.90;99.90;;;;;;5079376;28;20011;-72
2022/01/12 09:27:44;;;;;;;;;;;6.40;99.90;;;;;;5081427;28;20011;-73
2022/01/12 09:30:11;;;;;;;;;;;7.10;99.90;;;;;;5074027;28;19927;-73
2022/01/12 09:32:38;;;;;;;;;;;7.70;99.90;;;;;;5081067;28;20403;-73
2022/01/12 09:35:06;;;;;;;;;;;8.50;99.90;;;;;;5075003;28;20349;-73
2022/01/12 09:37:33;;;;;;;;;;;9.20;99.90;;;;;;5073385;28;19955;-74
2022/01/12 09:39:59;;;;;;;;;;;9.70;99.90;;;;;;5088000;28;20011;-74
2022/01/12 09:42:26;;;;;;;;;;;10.20;99.90;;;;;;5076247;28;19926;-74
2022/01/12 09:44:53;;;;;;;;;;;10.70;99.90;;;;;;5078491;28;19928;-74
2022/01/12 09:47:20;;;;;;;;;;;11.00;99.90;;;;;;5073474;28;20298;-74
2022/01/12 09:49:46;;;;;;;;;;;11.20;99.90;;;;;;5088630;28;19935;-74
2022/01/12 09:52:14;;;;;;;;;;;11.50;99.90;;;;;;5082401;28;19924;-74
2022/01/12 09:54:40;;;;;;;;;;;11.10;99.90;;;;;;5082350;28;20099;-75
2022/01/12 09:57:07;;;;;;;;;;;10.70;99.90;;;;;;5073676;28;19920;-75
2022/01/12 09:59:35;;;;;;;;;;;10.50;99.90;;;;;;5076490;28;19977;-75
2022/01/12 10:02:02;;;;;;;;;;;10.40;99.90;;;;;;5078181;28;20011;-74
2022/01/12 10:04:30;;;;;;;;;;;10.70;99.90;;;;;;5091590;28;19920;-75
2022/01/12 10:06:58;;;;;;;;;;;10.40;99.90;;;;;;5076738;28;20650;-74
2022/01/12 10:09:30;;;;;;;;;;;9.60;99.90;;;;;;5084003;28;20396;-75
2022/01/12 10:12:00;;;;;;;;;;;8.80;99.90;;;;;;5087262;28;19956;-75
2022/01/12 10:14:44;;;;;;;;;;;8.30;99.90;;;;;;5078848;28;19955;-75
2022/01/12 10:17:11;;;;;;;;;;;7.80;99.90;;;;;;5073616;28;19920;-75
2022/01/12 10:19:38;;;;;;;;;;;7.40;99.90;;;;;;5082819;28;19987;-75
2022/01/12 10:22:07;;;;;;;;;;;7.00;99.90;;;;;;5079385;28;19920;-75
2022/01/12 10:24:40;;;;;;;;;;;6.60;99.90;;;;;;5074504;28;19924;-75
2022/01/12 10:27:17;;;;;;;;;;;6.20;99.90;;;;;;5073491;28;19921;-75
2022/01/12 10:29:45;;;;;;;;;;;6.00;99.90;;;;;;5078311;28;19920;-75
2022/01/12 10:32:16;;;;;;;;;;;5.70;99.90;;;;;;5094102;28;19920;-75
2022/01/12 10:34:45;;;;;;;;;;;5.50;99.90;;;;;;5081208;28;20376;-75
2022/01/12 10:37:16;;;;;;;;;;;5.40;99.90;;;;;;5085350;28;19926;-75
2022/01/12 10:39:43;;;;;;;;;;;5.20;99.90;;;;;;5086078;28;19927;-75
2022/01/12 10:42:12;;;;;;;;;;;5.00;99.90;;;;;;5087176;28;19927;-76
2022/01/12 10:44:40;;;;;;;;;;;5.00;99.90;;;;;;5083455;28;19975;-75
2022/01/12 10:47:16;;;;;;;;;;;5.10;99.90;;;;;;5081642;28;19963;-75
2022/01/12 10:50:03;;;;;;;;;;;5.40;99.90;;;;;;5079260;28;19920;-76
2022/01/12 10:52:39;;;;;;;;;;;6.40;99.90;;;;;;5054491;28;20331;-76
2022/01/12 10:55:10;;;;;;;;;;;8.10;99.90;;;;;;5091786;28;19962;-76
2022/01/12 10:57:40;;;;;;;;;;;9.70;99.90;;;;;;5086392;28;20006;-77
2022/01/12 11:00:23;;;;;;;;;;;10.90;99.90;;;;;;5071464;28;19927;-77
2022/01/12 11:02:57;;;;;;;;;;;12.20;99.90;;;;;;5082655;28;19970;-76
2022/01/12 11:05:25;;;;;;;;;;;12.80;99.90;;;;;;5080197;28;20018;-77
2022/01/12 11:07:52;;;;;;;;;;;13.50;99.90;;;;;;5087145;28;19926;-77
2022/01/12 11:10:20;;;;;;;;;;;13.70;99.90;;;;;;5091980;28;20534;-77
2022/01/12 11:12:48;;;;;;;;;;;13.50;99.90;;;;;;5076219;28;19926;-77
2022/01/12 11:15:15;;;;;;;;;;;13.00;99.90;;;;;;5092775;28;19926;-76
2022/01/12 11:17:43;;;;;;;;;;;12.40;99.90;;;;;;5080106;28;20015;-76
2022/01/12 11:20:18;;;;;;;;;;;11.60;99.90;;;;;;5083542;28;19920;-76
2022/01/12 11:23:03;;;;;;;;;;;10.90;99.90;;;;;;5092850;28;20475;-77
2022/01/12 11:25:34;;;;;;;;;;;10.50;99.90;;;;;;5084937;28;20011;-77
2022/01/12 11:28:04;;;;;;;;;;;9.90;99.90;;;;;;5085611;28;19999;-76
2022/01/12 11:30:33;;;;;;;;;;;9.60;99.90;;;;;;5082775;28;19934;-76
2022/01/12 11:33:02;;;;;;;;;;;9.60;99.90;;;;;;5074802;28;20059;-76
2022/01/12 11:35:30;;;;;;;;;;;9.90;99.90;;;;;;5082100;28;20440;-77
2022/01/12 11:37:59;;;;;;;;;;;9.80;99.90;;;;;;5086697;28;24125;-77
2022/01/12 11:40:32;;;;;;;;;;;10.30;99.90;;;;;;5075069;28;19956;-77
2022/01/12 11:42:58;;;;;;;;;;;10.40;99.90;;;;;;5073950;28;19920;-76
2022/01/12 11:45:25;;;;;;;;;;;10.40;99.90;;;;;;5075675;28;20334;-76
2022/01/12 11:47:52;;;;;;;;;;;10.20;99.90;;;;;;5085569;28;19991;-76
2022/01/12 11:50:18;;;;;;;;;;;9.90;99.90;;;;;;5083119;28;20023;-77
2022/01/12 11:52:45;;;;;;;;;;;9.90;99.90;;;;;;5084753;28;19927;-76
2022/01/12 11:55:16;;;;;;;;;;;10.00;99.90;;;;;;5082710;28;20011;-77
2022/01/12 11:58:01;;;;;;;;;;;10.10;99.90;;;;;;5074248;28;20482;-77
2022/01/12 12:00:30;;;;;;;;;;;10.00;99.90;;;;;;5082399;28;19920;-76
2022/01/12 12:02:57;;;;;;;;;;;10.80;99.90;;;;;;5078090;28;19996;-77
2022/01/12 12:05:29;;;;;;;;;;;11.20;99.90;;;;;;5081137;28;19920;-77
2022/01/12 12:07:56;;;;;;;;;;;11.80;99.90;;;;;;5086937;28;19927;-77
2022/01/12 12:10:27;;;;;;;;;;;12.20;99.90;;;;;;5081237;28;19920;-77
2022/01/12 12:12:55;;;;;;;;;;;12.90;99.90;;;;;;5081926;28;19934;-77
2022/01/12 12:15:25;;;;;;;;;;;13.40;99.90;;;;;;5073151;28;19987;-77
2022/01/12 12:17:53;;;;;;;;;;;13.00;99.90;;;;;;5080832;28;20286;-77
2022/01/12 12:20:21;;;;;;;;;;;12.20;99.90;;;;;;5081031;28;19924;-77
2022/01/12 12:22:53;;;;;;;;;;;11.10;99.90;;;;;;5078660;28;19924;-76
2022/01/12 12:25:25;;;;;;;;;;;9.80;99.90;;;;;;5080122;28;19930;-76
2022/01/12 12:27:52;;;;;;;;;;;8.90;99.90;;;;;;5076858;28;19920;-75
2022/01/12 12:30:20;;;;;;;;;;;8.40;99.90;;;;;;5090184;28;19967;-76
2022/01/12 12:32:48;;;;;;;;;;;7.90;99.90;;;;;;5090641;28;20015;-76
2022/01/12 12:35:17;;;;;;;;;;;7.60;99.90;;;;;;5080940;28;19996;-75
2022/01/12 12:37:55;;;;;;;;;;;7.40;99.90;;;;;;5087176;28;20471;-76
2022/01/12 12:40:26;;;;;;;;;;;7.00;99.90;;;;;;5081612;28;19930;-76
2022/01/12 12:43:01;;;;;;;;;;;7.20;99.90;;;;;;5075125;28;19962;-76
2022/01/12 12:45:40;;;;;;;;;;;7.70;99.90;;;;;;5078172;28;19920;-76
2022/01/12 12:48:08;;;;;;;;;;;7.90;99.90;;;;;;5074014;28;19947;-74
2022/01/12 12:50:35;;;;;;;;;;;8.30;99.90;;;;;;5082435;28;20593;-75
2022/01/12 12:53:07;;;;;;;;;;;8.50;99.90;;;;;;5079663;28;19921;-74
2022/01/12 12:55:35;;;;;;;;;;;8.40;99.90;;;;;;5078250;28;20385;-76
2022/01/12 12:58:02;;;;;;;;;;;7.90;99.90;;;;;;5084430;28;19971;-76
2022/01/12 13:00:29;;;;;;;;;;;7.70;99.90;;;;;;5079170;28;19920;-76
2022/01/12 13:02:57;;;;;;;;;;;7.90;99.90;;;;;;5085285;28;19920;-75
2022/01/12 13:05:29;;;;;;;;;;;8.30;99.90;;;;;;5083164;28;20413;-78
2022/01/12 13:07:56;;;;;;;;;;;9.20;99.90;;;;;;5076244;28;19964;-79
2022/01/12 13:10:24;;;;;;;;;;;10.00;99.90;;;;;;5085412;28;19924;-78
2022/01/12 13:12:53;;;;;;;;;;;10.60;99.90;;;;;;5082252;28;20004;-79
2022/01/12 13:15:30;;;;;;;;;;;11.00;99.90;;;;;;5074924;28;19920;-75
2022/01/12 13:18:17;;;;;;;;;;;10.30;99.90;;;;;;5081034;28;19925;-75
2022/01/12 13:23:32;;;;;;;;;;;10.00;99.90;;;;;;5079854;28;20011;-76
2022/01/12 13:26:04;;;;;;;;;;;10.60;99.90;;;;;;5081781;28;20006;-78
2022/01/12 13:28:33;;;;;;;;;;;10.90;99.90;;;;;;5086523;28;20012;-78
2022/01/12 13:31:01;;;;;;;;;;;10.60;99.90;;;;;;5078505;28;19920;-76
2022/01/12 13:33:32;;;;;;;;;;;9.90;99.90;;;;;;5086567;28;19927;-76
2022/01/12 13:36:10;;;;;;;;;;;9.10;99.90;;;;;;5088400;28;19920;-75
2022/01/12 13:38:37;;;;;;;;;;;8.40;99.90;;;;;;5079092;28;20023;-75
2022/01/12 13:41:08;;;;;;;;;;;7.80;99.90;;;;;;5081232;28;19920;-77
2022/01/12 13:43:36;;;;;;;;;;;7.40;99.90;;;;;;5090061;28;19935;-78
2022/01/12 13:46:11;;;;;;;;;;;7.00;99.90;;;;;;5078396;28;20390;-76
2022/01/12 13:49:38;;;;;;;;;;;6.70;99.90;;;;;;5091002;28;19974;-76
2022/01/12 13:51:40;;;;;;;;;;;6.50;99.90;;;;;;5082321;28;20011;-76
2022/01/12 13:54:09;;;;;;;;;;;6.40;99.90;;;;;;5085956;28;20371;-76
2022/01/12 13:56:41;;;;;;;;;;;6.50;99.90;;;;;;5076948;28;19977;-76
2022/01/12 13:59:09;;;;;;;;;;;6.50;99.90;;;;;;5086422;28;19924;-76
2022/01/12 14:01:37;;;;;;;;;;;6.40;99.90;;;;;;5090163;28;19926;-76
2022/01/12 14:04:21;;;;;;;;;;;6.30;99.90;;;;;;5083256;28;19928;-76
2022/01/12 14:06:52;;;;;;;;;;;6.30;99.90;;;;;;5087228;28;19920;-75
2022/01/12 14:09:30;;;;;;;;;;;6.30;99.90;;;;;;5074641;28;19928;-76
2022/01/12 14:12:06;;;;;;;;;;;6.20;99.90;;;;;;5081748;28;20006;-75
2022/01/12 14:14:44;;;;;;;;;;;6.20;99.90;;;;;;5082968;28;20444;-76
2022/01/12 14:17:41;;;;;;;;;;;6.20;99.90;;;;;;5087785;28;20462;-76
2022/01/12 14:20:20;;;;;;;;;;;6.30;99.90;;;;;;5069026;28;20325;-76
2022/01/12 14:22:48;;;;;;;;;;;6.20;99.90;;;;;;5085135;28;19924;-76
2022/01/12 14:25:17;;;;;;;;;;;6.10;99.90;;;;;;5076180;28;20416;-75
2022/01/12 14:27:52;;;;;;;;;;;6.20;99.90;;;;;;5079151;28;19927;-76
2022/01/12 14:30:20;;;;;;;;;;;6.20;99.90;;;;;;5082749;28;20014;-76
2022/01/12 14:32:47;;;;;;;;;;;6.20;99.90;;;;;;5076180;28;19995;-77
2022/01/12 14:35:16;;;;;;;;;;;6.10;99.90;;;;;;5078586;28;20432;-77
2022/01/12 14:37:43;;;;;;;;;;;6.10;99.90;;;;;;5073560;28;19927;-77
2022/01/12 14:40:11;;;;;;;;;;;5.80;99.90;;;;;;5084186;28;19927;-77
2022/01/12 14:42:39;;;;;;;;;;;5.70;99.90;;;;;;5083017;28;20444;-77
2022/01/12 14:45:05;;;;;;;;;;;5.70;99.90;;;;;;5097909;28;19924;-76
2022/01/12 14:47:32;;;;;;;;;;;5.50;99.90;;;;;;5079937;28;20011;-77
2022/01/12 14:49:59;;;;;;;;;;;5.40;99.90;;;;;;5079664;28;19920;-77
2022/01/12 14:52:26;;;;;;;;;;;5.20;99.90;;;;;;5083676;28;19974;-77
2022/01/12 14:54:52;;;;;;;;;;;5.00;99.90;;;;;;5085370;28;19975;-77
2022/01/12 14:57:19;;;;;;;;;;;4.80;99.90;;;;;;5080327;28;19928;-77
2022/01/12 14:59:46;;;;;;;;;;;4.60;99.90;;;;;;5076877;28;20397;-77
2022/01/12 15:02:12;;;;;;;;;;;4.40;99.90;;;;;;5048651;28;19920;-75
2022/01/12 15:04:43;;;;;;;;;;;4.20;99.90;;;;;;5082964;28;19920;-74
2022/01/12 15:07:11;;;;;;;;;;;4.00;99.90;;;;;;5077294;28;19924;-74
2022/01/12 15:09:42;;;;;;;;;;;3.90;99.90;;;;;;5096185;28;19955;-74
2022/01/12 15:12:14;;;;;;;;;;;3.80;99.90;;;;;;5086278;28;19963;-75
2022/01/12 15:17:09;;;;;;;;;;;3.60;99.90;;;;;;5077948;28;19927;-74
2022/01/12 15:19:36;;;;;;;;;;;3.50;99.90;;;;;;5077560;28;20035;-74
2022/01/12 15:22:03;;;;;;;;;;;3.40;99.90;;;;;;5083891;28;20026;-75
2022/01/12 15:24:30;;;;;;;;;;;3.30;99.90;;;;;;5084816;28;19920;-74
2022/01/12 15:26:56;;;;;;;;;;;3.10;99.90;;;;;;5089474;28;19926;-74
2022/01/12 15:29:23;;;;;;;;;;;3.00;99.90;;;;;;5093370;28;19963;-74
2022/01/12 15:31:50;;;;;;;;;;;3.00;99.90;;;;;;5059393;28;19920;-74
2022/01/12 15:34:18;;;;;;;;;;;2.80;99.90;;;;;;5085612;28;20410;-74
2022/01/12 15:36:45;;;;;;;;;;;2.80;99.90;;;;;;5088623;28;20035;-74
2022/01/12 15:39:11;;;;;;;;;;;2.70;99.90;;;;;;5083413;28;19930;-75
2022/01/12 15:41:38;;;;;;;;;;;2.70;99.90;;;;;;5076466;28;19920;-75
2022/01/12 15:44:05;;;;;;;;;;;2.60;99.90;;;;;;5077593;28;19999;-74
2022/01/12 15:46:32;;;;;;;;;;;2.60;99.90;;;;;;5079001;28;19920;-75
2022/01/12 15:48:58;;;;;;;;;;;2.60;99.90;;;;;;5055203;28;19966;-75
2022/01/12 15:51:25;;;;;;;;;;;2.70;99.90;;;;;;5087180;28;19924;-74
2022/01/12 15:53:52;;;;;;;;;;;2.80;99.90;;;;;;5083164;28;20538;-75
2022/01/12 15:56:19;;;;;;;;;;;2.90;99.90;;;;;;5075402;28;19921;-75